sensor_id;sensor_type;location;lat;lon;timestamp;temperature;humidity
19544;DHT22;9917;51.256;7.152;2023-04-06T00:00:56;4.40;87.20
19544;DHT22;9917;51.256;7.152;2023-04-06T00:03:22;4.40;87.70
19544;DHT22;9917;51.256;7.152;2023-04-06T00:05:49;4.40;87.90
19544;DHT22;9917;51.256;7.152;2023-04-06T00:08:14;4.30;88.90
19544;DHT22;9917;51.256;7.152;2023-04-06T00:10:40;4.20;88.90
19544;DHT22;9917;51.256;7.152;2023-04-06T00:13:06;4.30;89.50
19544;DHT22;9917;51.256;7.152;2023-04-06T00:15:32;4.20;89.50
19544;DHT22;9917;51.256;7.152;2023-04-06T00:17:58;4.30;89.90
19544;DHT22;9917;51.256;7.152;2023-04-06T00:20:23;4.40;90.00
19544;DHT22;9917;51.256;7.152;2023-04-06T00:22:51;4.30;90.30
19544;DHT22;9917;51.256;7.152;2023-04-06T00:25:17;4.20;90.50
19544;DHT22;9917;51.256;7.152;2023-04-06T00:27:42;4.20;91.10
19544;DHT22;9917;51.256;7.152;2023-04-06T00:30:09;4.20;91.30
19544;DHT22;9917;51.256;7.152;2023-04-06T00:32:35;4.20;91.10
19544;DHT22;9917;51.256;7.152;2023-04-06T00:35:02;4.20;91.40
19544;DHT22;9917;51.256;7.152;2023-04-06T00:37:27;4.20;91.10
19544;DHT22;9917;51.256;7.152;2023-04-06T00:39:54;4.30;91.40
19544;DHT22;9917;51.256;7.152;2023-04-06T00:42:21;4.30;91.40
19544;DHT22;9917;51.256;7.152;2023-04-06T00:44:47;4.20;92.00
19544;DHT22;9917;51.256;7.152;2023-04-06T00:47:13;4.10;91.40
19544;DHT22;9917;51.256;7.152;2023-04-06T00:49:39;4.20;91.80
19544;DHT22;9917;51.256;7.152;2023-04-06T00:52:05;4.10;92.30
19544;DHT22;9917;51.256;7.152;2023-04-06T00:54:30;4.00;92.90
19544;DHT22;9917;51.256;7.152;2023-04-06T00:56:58;4.00;93.00
19544;DHT22;9917;51.256;7.152;2023-04-06T00:59:24;4.00;93.30
19544;DHT22;9917;51.256;7.152;2023-04-06T01:01:49;4.10;93.10
19544;DHT22;9917;51.256;7.152;2023-04-06T01:04:15;4.00;93.40
19544;DHT22;9917;51.256;7.152;2023-04-06T01:06:41;4.00;93.80
19544;DHT22;9917;51.256;7.152;2023-04-06T01:09:07;3.90;93.90
19544;DHT22;9917;51.256;7.152;2023-04-06T01:11:33;3.80;94.20
19544;DHT22;9917;51.256;7.152;2023-04-06T01:14:03;3.80;94.70
19544;DHT22;9917;51.256;7.152;2023-04-06T01:16:28;3.70;95.30
19544;DHT22;9917;51.256;7.152;2023-04-06T01:18:54;3.70;95.90
19544;DHT22;9917;51.256;7.152;2023-04-06T01:21:21;3.70;96.00
19544;DHT22;9917;51.256;7.152;2023-04-06T01:23:48;3.80;95.90
19544;DHT22;9917;51.256;7.152;2023-04-06T01:26:14;3.80;96.20
19544;DHT22;9917;51.256;7.152;2023-04-06T01:28:40;3.60;96.50
19544;DHT22;9917;51.256;7.152;2023-04-06T01:31:06;3.60;96.90
19544;DHT22;9917;51.256;7.152;2023-04-06T01:33:32;3.70;96.90
19544;DHT22;9917;51.256;7.152;2023-04-06T01:35:58;3.60;97.30
19544;DHT22;9917;51.256;7.152;2023-04-06T01:38:24;3.60;97.70
19544;DHT22;9917;51.256;7.152;2023-04-06T01:40:51;3.60;97.40
19544;DHT22;9917;51.256;7.152;2023-04-06T01:43:17;3.60;97.80
19544;DHT22;9917;51.256;7.152;2023-04-06T01:45:43;3.60;97.80
19544;DHT22;9917;51.256;7.152;2023-04-06T01:48:08;3.70;98.30
19544;DHT22;9917;51.256;7.152;2023-04-06T01:50:34;3.60;98.00
19544;DHT22;9917;51.256;7.152;2023-04-06T01:53:00;3.70;98.40
19544;DHT22;9917;51.256;7.152;2023-04-06T01:55:26;3.60;98.80
19544;DHT22;9917;51.256;7.152;2023-04-06T01:57:53;3.60;99.00
19544;DHT22;9917;51.256;7.152;2023-04-06T02:00:19;3.60;99.30
19544;DHT22;9917;51.256;7.152;2023-04-06T02:02:44;3.50;99.20
19544;DHT22;9917;51.256;7.152;2023-04-06T02:05:10;3.50;99.80
19544;DHT22;9917;51.256;7.152;2023-04-06T02:07:36;3.50;99.50
19544;DHT22;9917;51.256;7.152;2023-04-06T02:10:03;3.50;99.90
19544;DHT22;9917;51.256;7.152;2023-04-06T02:12:29;3.50;99.90
19544;DHT22;9917;51.256;7.152;2023-04-06T02:14:56;3.50;99.90
19544;DHT22;9917;51.256;7.152;2023-04-06T02:17:22;3.60;99.90
19544;DHT22;9917;51.256;7.152;2023-04-06T02:19:47;3.60;99.90
19544;DHT22;9917;51.256;7.152;2023-04-06T02:22:14;3.50;99.70
19544;DHT22;9917;51.256;7.152;2023-04-06T02:24:40;3.50;99.90
19544;DHT22;9917;51.256;7.152;2023-04-06T02:27:06;3.50;99.90
19544;DHT22;9917;51.256;7.152;2023-04-06T02:29:31;3.40;99.90
19544;DHT22;9917;51.256;7.152;2023-04-06T02:31:58;3.40;99.90
19544;DHT22;9917;51.256;7.152;2023-04-06T02:34:24;3.30;99.90
19544;DHT22;9917;51.256;7.152;2023-04-06T02:36:50;3.30;99.90
19544;DHT22;9917;51.256;7.152;2023-04-06T02:39:16;3.20;99.90
19544;DHT22;9917;51.256;7.152;2023-04-06T02:41:41;3.30;99.90
19544;DHT22;9917;51.256;7.152;2023-04-06T02:44:08;3.20;99.90
19544;DHT22;9917;51.256;7.152;2023-04-06T02:46:34;3.20;99.90
19544;DHT22;9917;51.256;7.152;2023-04-06T02:49:01;3.30;99.90
19544;DHT22;9917;51.256;7.152;2023-04-06T02:51:26;3.40;99.90
19544;DHT22;9917;51.256;7.152;2023-04-06T02:53:52;3.20;99.90
19544;DHT22;9917;51.256;7.152;2023-04-06T02:56:18;3.20;99.90
19544;DHT22;9917;51.256;7.152;2023-04-06T02:58:44;3.10;99.90
19544;DHT22;9917;51.256;7.152;2023-04-06T03:01:09;3.10;99.90
19544;DHT22;9917;51.256;7.152;2023-04-06T03:03:35;3.10;99.90
19544;DHT22;9917;51.256;7.152;2023-04-06T03:06:02;3.10;99.90
19544;DHT22;9917;51.256;7.152;2023-04-06T03:08:28;3.10;99.90
19544;DHT22;9917;51.256;7.152;2023-04-06T03:10:54;3.10;99.90
19544;DHT22;9917;51.256;7.152;2023-04-06T03:13:20;3.10;99.90
19544;DHT22;9917;51.256;7.152;2023-04-06T03:15:46;3.10;99.90
19544;DHT22;9917;51.256;7.152;2023-04-06T03:18:12;3.00;99.90
19544;DHT22;9917;51.256;7.152;2023-04-06T03:20:38;3.30;99.90
19544;DHT22;9917;51.256;7.152;2023-04-06T03:23:05;3.10;99.90
19544;DHT22;9917;51.256;7.152;2023-04-06T03:25:30;3.10;99.90
19544;DHT22;9917;51.256;7.152;2023-04-06T03:27:56;3.10;99.90
19544;DHT22;9917;51.256;7.152;2023-04-06T03:30:25;3.00;99.90
19544;DHT22;9917;51.256;7.152;2023-04-06T03:37:42;2.90;99.90
19544;DHT22;9917;51.256;7.152;2023-04-06T03:40:10;3.00;99.90
19544;DHT22;9917;51.256;7.152;2023-04-06T03:42:36;2.90;99.90
19544;DHT22;9917;51.256;7.152;2023-04-06T03:45:02;2.90;99.90
19544;DHT22;9917;51.256;7.152;2023-04-06T03:47:28;3.00;99.90
19544;DHT22;9917;51.256;7.152;2023-04-06T03:49:54;3.00;99.90
19544;DHT22;9917;51.256;7.152;2023-04-06T03:52:19;3.00;99.90
19544;DHT22;9917;51.256;7.152;2023-04-06T03:54:45;2.90;99.90
19544;DHT22;9917;51.256;7.152;2023-04-06T03:57:12;2.90;99.90
19544;DHT22;9917;51.256;7.152;2023-04-06T04:02:04;2.90;99.90
19544;DHT22;9917;51.256;7.152;2023-04-06T04:04:30;2.90;99.90
19544;DHT22;9917;51.256;7.152;2023-04-06T04:06:56;2.90;99.90
19544;DHT22;9917;51.256;7.152;2023-04-06T04:09:21;2.90;99.90
19544;DHT22;9917;51.256;7.152;2023-04-06T04:11:47;2.90;99.90
19544;DHT22;9917;51.256;7.152;2023-04-06T04:14:14;2.90;99.90
19544;DHT22;9917;51.256;7.152;2023-04-06T04:16:40;2.90;99.90
19544;DHT22;9917;51.256;7.152;2023-04-06T04:19:06;2.90;99.90
19544;DHT22;9917;51.256;7.152;2023-04-06T04:21:32;2.90;99.90
19544;DHT22;9917;51.256;7.152;2023-04-06T04:23:57;2.90;99.90
19544;DHT22;9917;51.256;7.152;2023-04-06T04:28:49;2.90;99.90
19544;DHT22;9917;51.256;7.152;2023-04-06T04:31:16;2.80;99.90
19544;DHT22;9917;51.256;7.152;2023-04-06T04:33:42;2.90;99.90
19544;DHT22;9917;51.256;7.152;2023-04-06T04:36:08;2.80;99.90
19544;DHT22;9917;51.256;7.152;2023-04-06T04:38:34;2.90;99.90
19544;DHT22;9917;51.256;7.152;2023-04-06T04:40:59;2.90;99.90
19544;DHT22;9917;51.256;7.152;2023-04-06T04:43:25;3.00;99.90
19544;DHT22;9917;51.256;7.152;2023-04-06T04:45:51;2.90;99.90
19544;DHT22;9917;51.256;7.152;2023-04-06T04:48:18;2.90;99.90
19544;DHT22;9917;51.256;7.152;2023-04-06T04:50:44;2.80;99.90
19544;DHT22;9917;51.256;7.152;2023-04-06T04:53:09;2.80;99.90
19544;DHT22;9917;51.256;7.152;2023-04-06T04:55:35;2.80;99.90
19544;DHT22;9917;51.256;7.152;2023-04-06T04:58:01;2.70;99.90
19544;DHT22;9917;51.256;7.152;2023-04-06T05:00:27;2.80;99.90
19544;DHT22;9917;51.256;7.152;2023-04-06T05:02:52;2.80;99.90
19544;DHT22;9917;51.256;7.152;2023-04-06T05:05:19;2.80;99.90
19544;DHT22;9917;51.256;7.152;2023-04-06T05:07:45;2.80;99.90
19544;DHT22;9917;51.256;7.152;2023-04-06T05:10:11;2.80;99.90
19544;DHT22;9917;51.256;7.152;2023-04-06T05:12:37;2.90;99.90
19544;DHT22;9917;51.256;7.152;2023-04-06T05:15:04;2.90;99.90
19544;DHT22;9917;51.256;7.152;2023-04-06T05:17:30;2.90;99.90
19544;DHT22;9917;51.256;7.152;2023-04-06T05:19:56;2.90;99.90
19544;DHT22;9917;51.256;7.152;2023-04-06T05:22:23;2.90;99.90
19544;DHT22;9917;51.256;7.152;2023-04-06T05:24:48;3.00;99.90
19544;DHT22;9917;51.256;7.152;2023-04-06T05:27:14;3.00;99.90
19544;DHT22;9917;51.256;7.152;2023-04-06T05:29:40;3.10;99.90
19544;DHT22;9917;51.256;7.152;2023-04-06T05:32:06;3.10;99.90
19544;DHT22;9917;51.256;7.152;2023-04-06T05:34:32;3.20;99.90
19544;DHT22;9917;51.256;7.152;2023-04-06T05:36:57;3.20;99.90
19544;DHT22;9917;51.256;7.152;2023-04-06T05:39:24;3.40;99.90
19544;DHT22;9917;51.256;7.152;2023-04-06T05:41:50;3.40;99.90
19544;DHT22;9917;51.256;7.152;2023-04-06T05:44:16;3.40;99.90
19544;DHT22;9917;51.256;7.152;2023-04-06T05:46:42;3.50;99.90
19544;DHT22;9917;51.256;7.152;2023-04-06T05:49:07;3.50;99.90
19544;DHT22;9917;51.256;7.152;2023-04-06T05:51:33;3.50;99.90
19544;DHT22;9917;51.256;7.152;2023-04-06T05:53:59;3.60;99.90
19544;DHT22;9917;51.256;7.152;2023-04-06T05:56:26;3.60;99.90
19544;DHT22;9917;51.256;7.152;2023-04-06T05:58:52;3.70;99.90
19544;DHT22;9917;51.256;7.152;2023-04-06T06:01:18;3.70;99.90
19544;DHT22;9917;51.256;7.152;2023-04-06T06:03:43;3.60;99.90
19544;DHT22;9917;51.256;7.152;2023-04-06T06:06:10;3.80;99.90
19544;DHT22;9917;51.256;7.152;2023-04-06T06:08:36;4.00;99.90
19544;DHT22;9917;51.256;7.152;2023-04-06T06:11:02;4.00;99.90
19544;DHT22;9917;51.256;7.152;2023-04-06T06:13:29;4.00;99.90
19544;DHT22;9917;51.256;7.152;2023-04-06T06:18:21;4.20;99.70
19544;DHT22;9917;51.256;7.152;2023-04-06T06:20:46;4.30;99.50
19544;DHT22;9917;51.256;7.152;2023-04-06T06:23:12;4.30;99.50
19544;DHT22;9917;51.256;7.152;2023-04-06T06:25:38;4.30;99.40
19544;DHT22;9917;51.256;7.152;2023-04-06T06:28:04;4.40;99.90
19544;DHT22;9917;51.256;7.152;2023-04-06T06:30:31;4.40;99.20
19544;DHT22;9917;51.256;7.152;2023-04-06T06:32:57;4.40;99.00
19544;DHT22;9917;51.256;7.152;2023-04-06T06:35:23;4.40;99.00
19544;DHT22;9917;51.256;7.152;2023-04-06T06:37:48;4.40;99.00
19544;DHT22;9917;51.256;7.152;2023-04-06T06:40:14;4.60;99.90
19544;DHT22;9917;51.256;7.152;2023-04-06T06:42:40;4.70;99.90
19544;DHT22;9917;51.256;7.152;2023-04-06T06:45:08;4.90;99.20
19544;DHT22;9917;51.256;7.152;2023-04-06T06:47:35;5.00;98.20
19544;DHT22;9917;51.256;7.152;2023-04-06T06:50:01;5.10;96.60
19544;DHT22;9917;51.256;7.152;2023-04-06T06:52:27;5.10;96.10
19544;DHT22;9917;51.256;7.152;2023-04-06T06:54:53;5.30;95.80
19544;DHT22;9917;51.256;7.152;2023-04-06T06:57:19;5.40;94.40
19544;DHT22;9917;51.256;7.152;2023-04-06T06:59:44;5.60;93.30
19544;DHT22;9917;51.256;7.152;2023-04-06T07:04:38;6.00;91.10
19544;DHT22;9917;51.256;7.152;2023-04-06T07:07:03;6.00;91.40
19544;DHT22;9917;51.256;7.152;2023-04-06T07:09:29;6.20;90.70
19544;DHT22;9917;51.256;7.152;2023-04-06T07:11:55;6.30;90.40
19544;DHT22;9917;51.256;7.152;2023-04-06T07:16:49;6.60;83.00
19544;DHT22;9917;51.256;7.152;2023-04-06T07:19:15;6.60;83.90
19544;DHT22;9917;51.256;7.152;2023-04-06T07:21:42;6.70;85.70
19544;DHT22;9917;51.256;7.152;2023-04-06T07:24:08;6.70;82.20
19544;DHT22;9917;51.256;7.152;2023-04-06T07:26:33;6.80;83.90
19544;DHT22;9917;51.256;7.152;2023-04-06T07:28:59;7.10;86.50
19544;DHT22;9917;51.256;7.152;2023-04-06T07:31:25;7.00;86.00
19544;DHT22;9917;51.256;7.152;2023-04-06T07:33:51;7.10;84.20
19544;DHT22;9917;51.256;7.152;2023-04-06T07:36:16;7.30;83.80
19544;DHT22;9917;51.256;7.152;2023-04-06T07:38:44;7.40;82.30
19544;DHT22;9917;51.256;7.152;2023-04-06T07:41:09;7.50;83.10
19544;DHT22;9917;51.256;7.152;2023-04-06T07:43:35;7.70;82.90
19544;DHT22;9917;51.256;7.152;2023-04-06T07:46:01;7.80;83.20
19544;DHT22;9917;51.256;7.152;2023-04-06T07:48:26;7.90;78.80
19544;DHT22;9917;51.256;7.152;2023-04-06T07:50:54;8.00;79.70
19544;DHT22;9917;51.256;7.152;2023-04-06T07:53:25;8.30;77.10
19544;DHT22;9917;51.256;7.152;2023-04-06T07:55:53;8.90;78.50
19544;DHT22;9917;51.256;7.152;2023-04-06T07:58:18;9.90;71.40
19544;DHT22;9917;51.256;7.152;2023-04-06T08:00:44;12.00;61.90
19544;DHT22;9917;51.256;7.152;2023-04-06T08:03:10;12.10;62.60
19544;DHT22;9917;51.256;7.152;2023-04-06T08:05:36;13.60;60.40
19544;DHT22;9917;51.256;7.152;2023-04-06T08:08:01;15.40;53.60
19544;DHT22;9917;51.256;7.152;2023-04-06T08:10:27;17.40;53.70
19544;DHT22;9917;51.256;7.152;2023-04-06T08:12:54;18.80;45.00
19544;DHT22;9917;51.256;7.152;2023-04-06T08:15:20;19.40;42.90
19544;DHT22;9917;51.256;7.152;2023-04-06T08:17:46;20.20;40.30
19544;DHT22;9917;51.256;7.152;2023-04-06T08:20:12;21.30;38.30
19544;DHT22;9917;51.256;7.152;2023-04-06T08:22:38;22.50;36.30
19544;DHT22;9917;51.256;7.152;2023-04-06T08:25:04;22.60;34.80
19544;DHT22;9917;51.256;7.152;2023-04-06T08:27:30;21.30;34.20
19544;DHT22;9917;51.256;7.152;2023-04-06T08:29:57;19.80;35.60
19544;DHT22;9917;51.256;7.152;2023-04-06T08:32:23;18.90;37.70
19544;DHT22;9917;51.256;7.152;2023-04-06T08:34:49;18.80;38.00
19544;DHT22;9917;51.256;7.152;2023-04-06T08:37:14;19.30;37.10
19544;DHT22;9917;51.256;7.152;2023-04-06T08:39:40;19.40;37.30
19544;DHT22;9917;51.256;7.152;2023-04-06T08:42:12;19.50;36.40
19544;DHT22;9917;51.256;7.152;2023-04-06T08:44:38;19.70;36.10
19544;DHT22;9917;51.256;7.152;2023-04-06T08:47:06;19.20;36.50
19544;DHT22;9917;51.256;7.152;2023-04-06T08:49:33;18.90;36.80
19544;DHT22;9917;51.256;7.152;2023-04-06T08:52:00;18.50;37.20
19544;DHT22;9917;51.256;7.152;2023-04-06T08:54:26;18.50;37.50
19544;DHT22;9917;51.256;7.152;2023-04-06T08:56:52;18.40;37.60
19544;DHT22;9917;51.256;7.152;2023-04-06T08:59:19;17.90;37.50
19544;DHT22;9917;51.256;7.152;2023-04-06T09:01:45;17.70;38.00
19544;DHT22;9917;51.256;7.152;2023-04-06T09:04:12;18.00;37.90
19544;DHT22;9917;51.256;7.152;2023-04-06T09:06:38;17.80;38.30
19544;DHT22;9917;51.256;7.152;2023-04-06T09:09:04;18.80;36.60
19544;DHT22;9917;51.256;7.152;2023-04-06T09:11:42;18.90;37.00
19544;DHT22;9917;51.256;7.152;2023-04-06T09:14:07;19.70;36.10
19544;DHT22;9917;51.256;7.152;2023-04-06T09:16:39;20.40;35.20
19544;DHT22;9917;51.256;7.152;2023-04-06T09:19:05;19.40;35.00
19544;DHT22;9917;51.256;7.152;2023-04-06T09:21:33;19.40;35.60
19544;DHT22;9917;51.256;7.152;2023-04-06T09:23:59;19.60;35.60
19544;DHT22;9917;51.256;7.152;2023-04-06T09:26:25;19.80;35.40
19544;DHT22;9917;51.256;7.152;2023-04-06T09:28:52;19.80;35.90
19544;DHT22;9917;51.256;7.152;2023-04-06T09:31:22;20.50;35.90
19544;DHT22;9917;51.256;7.152;2023-04-06T09:33:48;21.30;33.90
19544;DHT22;9917;51.256;7.152;2023-04-06T09:36:14;21.50;33.90
19544;DHT22;9917;51.256;7.152;2023-04-06T09:38:53;21.10;33.40
19544;DHT22;9917;51.256;7.152;2023-04-06T09:41:23;19.50;35.10
19544;DHT22;9917;51.256;7.152;2023-04-06T09:44:02;18.60;36.00
19544;DHT22;9917;51.256;7.152;2023-04-06T09:46:31;17.80;37.10
19544;DHT22;9917;51.256;7.152;2023-04-06T09:48:58;17.30;38.30
19544;DHT22;9917;51.256;7.152;2023-04-06T09:51:25;17.00;39.10
19544;DHT22;9917;51.256;7.152;2023-04-06T09:53:53;17.10;39.50
19544;DHT22;9917;51.256;7.152;2023-04-06T09:56:23;18.00;38.20
19544;DHT22;9917;51.256;7.152;2023-04-06T09:58:52;19.10;38.10
19544;DHT22;9917;51.256;7.152;2023-04-06T10:01:20;19.70;35.80
19544;DHT22;9917;51.256;7.152;2023-04-06T10:03:54;20.80;36.00
19544;DHT22;9917;51.256;7.152;2023-04-06T10:06:23;21.60;33.90
19544;DHT22;9917;51.256;7.152;2023-04-06T10:08:50;21.10;34.10
19544;DHT22;9917;51.256;7.152;2023-04-06T10:11:18;20.90;34.20
19544;DHT22;9917;51.256;7.152;2023-04-06T10:13:45;20.70;34.10
19544;DHT22;9917;51.256;7.152;2023-04-06T10:16:13;20.20;34.80
19544;DHT22;9917;51.256;7.152;2023-04-06T10:18:41;20.80;35.60
19544;DHT22;9917;51.256;7.152;2023-04-06T10:21:11;22.50;33.80
19544;DHT22;9917;51.256;7.152;2023-04-06T10:23:41;22.60;32.10
19544;DHT22;9917;51.256;7.152;2023-04-06T10:26:13;22.70;32.20
19544;DHT22;9917;51.256;7.152;2023-04-06T10:28:42;23.40;31.80
19544;DHT22;9917;51.256;7.152;2023-04-06T10:31:07;23.10;31.10
19544;DHT22;9917;51.256;7.152;2023-04-06T10:33:34;22.90;31.40
19544;DHT22;9917;51.256;7.152;2023-04-06T10:36:10;21.80;32.20
19544;DHT22;9917;51.256;7.152;2023-04-06T10:38:38;20.40;34.00
19544;DHT22;9917;51.256;7.152;2023-04-06T10:41:04;20.30;34.50
19544;DHT22;9917;51.256;7.152;2023-04-06T10:43:33;21.00;33.80
19544;DHT22;9917;51.256;7.152;2023-04-06T10:46:01;20.50;33.60
19544;DHT22;9917;51.256;7.152;2023-04-06T10:48:36;20.40;34.50
19544;DHT22;9917;51.256;7.152;2023-04-06T10:51:09;20.80;33.60
19544;DHT22;9917;51.256;7.152;2023-04-06T10:53:35;21.40;34.00
19544;DHT22;9917;51.256;7.152;2023-04-06T10:56:03;21.30;33.80
19544;DHT22;9917;51.256;7.152;2023-04-06T10:58:30;22.30;33.10
19544;DHT22;9917;51.256;7.152;2023-04-06T11:00:56;22.40;32.70
19544;DHT22;9917;51.256;7.152;2023-04-06T11:03:23;22.50;32.90
19544;DHT22;9917;51.256;7.152;2023-04-06T11:05:52;23.50;32.50
19544;DHT22;9917;51.256;7.152;2023-04-06T11:08:25;24.20;31.20
19544;DHT22;9917;51.256;7.152;2023-04-06T11:10:52;23.30;32.10
19544;DHT22;9917;51.256;7.152;2023-04-06T11:13:18;24.00;31.90
19544;DHT22;9917;51.256;7.152;2023-04-06T11:15:46;25.00;30.80
19544;DHT22;9917;51.256;7.152;2023-04-06T11:18:12;25.20;30.10
19544;DHT22;9917;51.256;7.152;2023-04-06T11:20:49;25.40;30.20
19544;DHT22;9917;51.256;7.152;2023-04-06T11:23:22;25.10;29.80
19544;DHT22;9917;51.256;7.152;2023-04-06T11:25:50;24.30;30.50
19544;DHT22;9917;51.256;7.152;2023-04-06T11:28:16;23.10;31.90
19544;DHT22;9917;51.256;7.152;2023-04-06T11:30:42;22.40;33.30
19544;DHT22;9917;51.256;7.152;2023-04-06T11:33:08;22.90;33.00
19544;DHT22;9917;51.256;7.152;2023-04-06T11:35:34;22.60;32.80
19544;DHT22;9917;51.256;7.152;2023-04-06T11:38:02;22.70;32.50
19544;DHT22;9917;51.256;7.152;2023-04-06T11:40:28;22.60;32.60
19544;DHT22;9917;51.256;7.152;2023-04-06T11:42:55;22.00;33.70
19544;DHT22;9917;51.256;7.152;2023-04-06T11:45:21;22.20;33.70
19544;DHT22;9917;51.256;7.152;2023-04-06T11:47:55;22.20;33.40
19544;DHT22;9917;51.256;7.152;2023-04-06T11:50:21;22.10;33.60
19544;DHT22;9917;51.256;7.152;2023-04-06T11:52:58;21.40;34.50
19544;DHT22;9917;51.256;7.152;2023-04-06T11:55:25;20.20;36.30
19544;DHT22;9917;51.256;7.152;2023-04-06T11:57:51;20.20;36.80
19544;DHT22;9917;51.256;7.152;2023-04-06T12:00:17;20.20;36.80
19544;DHT22;9917;51.256;7.152;2023-04-06T12:02:46;19.60;36.70
19544;DHT22;9917;51.256;7.152;2023-04-06T12:05:12;19.30;37.30
19544;DHT22;9917;51.256;7.152;2023-04-06T12:07:38;19.40;37.50
19544;DHT22;9917;51.256;7.152;2023-04-06T12:10:04;19.50;37.20
19544;DHT22;9917;51.256;7.152;2023-04-06T12:12:31;19.80;37.70
19544;DHT22;9917;51.256;7.152;2023-04-06T12:14:57;20.20;38.40
19544;DHT22;9917;51.256;7.152;2023-04-06T12:17:23;20.40;36.20
19544;DHT22;9917;51.256;7.152;2023-04-06T12:19:49;20.80;37.60
19544;DHT22;9917;51.256;7.152;2023-04-06T12:22:15;20.20;36.40
19544;DHT22;9917;51.256;7.152;2023-04-06T12:24:41;20.00;37.30
19544;DHT22;9917;51.256;7.152;2023-04-06T12:27:07;19.10;37.90
19544;DHT22;9917;51.256;7.152;2023-04-06T12:29:34;18.90;38.50
19544;DHT22;9917;51.256;7.152;2023-04-06T12:32:00;18.90;39.10
19544;DHT22;9917;51.256;7.152;2023-04-06T12:34:25;18.90;38.70
19544;DHT22;9917;51.256;7.152;2023-04-06T12:36:51;18.30;39.70
19544;DHT22;9917;51.256;7.152;2023-04-06T12:39:19;18.50;40.00
19544;DHT22;9917;51.256;7.152;2023-04-06T12:41:44;18.60;40.30
19544;DHT22;9917;51.256;7.152;2023-04-06T12:44:10;18.20;40.60
19544;DHT22;9917;51.256;7.152;2023-04-06T12:46:37;18.00;40.80
19544;DHT22;9917;51.256;7.152;2023-04-06T12:49:03;18.10;40.70
19544;DHT22;9917;51.256;7.152;2023-04-06T12:51:29;18.10;41.40
19544;DHT22;9917;51.256;7.152;2023-04-06T12:53:55;18.20;41.30
19544;DHT22;9917;51.256;7.152;2023-04-06T12:56:21;18.00;41.30
19544;DHT22;9917;51.256;7.152;2023-04-06T12:58:47;17.90;41.40
19544;DHT22;9917;51.256;7.152;2023-04-06T13:01:13;17.60;41.40
19544;DHT22;9917;51.256;7.152;2023-04-06T13:03:41;17.40;42.20
19544;DHT22;9917;51.256;7.152;2023-04-06T13:06:06;17.50;42.60
19544;DHT22;9917;51.256;7.152;2023-04-06T13:08:32;17.70;43.00
19544;DHT22;9917;51.256;7.152;2023-04-06T13:10:58;17.70;42.80
19544;DHT22;9917;51.256;7.152;2023-04-06T13:13:25;17.20;43.10
19544;DHT22;9917;51.256;7.152;2023-04-06T13:15:51;16.50;44.10
19544;DHT22;9917;51.256;7.152;2023-04-06T13:18:17;16.30;45.20
19544;DHT22;9917;51.256;7.152;2023-04-06T13:20:44;16.20;45.50
19544;DHT22;9917;51.256;7.152;2023-04-06T13:23:10;16.30;45.70
19544;DHT22;9917;51.256;7.152;2023-04-06T13:25:36;16.20;46.10
19544;DHT22;9917;51.256;7.152;2023-04-06T13:28:02;16.50;45.70
19544;DHT22;9917;51.256;7.152;2023-04-06T13:30:28;16.70;46.10
19544;DHT22;9917;51.256;7.152;2023-04-06T13:32:54;16.90;45.40
19544;DHT22;9917;51.256;7.152;2023-04-06T13:35:20;16.60;45.90
19544;DHT22;9917;51.256;7.152;2023-04-06T13:37:47;16.60;46.60
19544;DHT22;9917;51.256;7.152;2023-04-06T13:40:13;16.40;47.20
19544;DHT22;9917;51.256;7.152;2023-04-06T13:42:39;16.10;47.80
19544;DHT22;9917;51.256;7.152;2023-04-06T13:45:05;15.70;48.00
19544;DHT22;9917;51.256;7.152;2023-04-06T13:47:32;15.60;49.00
19544;DHT22;9917;51.256;7.152;2023-04-06T13:49:58;15.40;48.50
19544;DHT22;9917;51.256;7.152;2023-04-06T13:52:24;15.30;48.60
19544;DHT22;9917;51.256;7.152;2023-04-06T13:54:52;15.20;48.70
19544;DHT22;9917;51.256;7.152;2023-04-06T13:57:18;15.00;49.00
19544;DHT22;9917;51.256;7.152;2023-04-06T13:59:44;14.90;49.60
19544;DHT22;9917;51.256;7.152;2023-04-06T14:02:10;15.00;50.70
19544;DHT22;9917;51.256;7.152;2023-04-06T14:04:37;15.00;50.40
19544;DHT22;9917;51.256;7.152;2023-04-06T14:07:03;15.00;50.70
19544;DHT22;9917;51.256;7.152;2023-04-06T14:09:30;15.20;51.60
19544;DHT22;9917;51.256;7.152;2023-04-06T14:11:57;15.30;51.10
19544;DHT22;9917;51.256;7.152;2023-04-06T14:14:23;15.30;51.10
19544;DHT22;9917;51.256;7.152;2023-04-06T14:16:49;15.10;51.70
19544;DHT22;9917;51.256;7.152;2023-04-06T14:19:16;15.10;51.50
19544;DHT22;9917;51.256;7.152;2023-04-06T14:21:42;14.60;52.80
19544;DHT22;9917;51.256;7.152;2023-04-06T14:24:08;14.60;53.10
19544;DHT22;9917;51.256;7.152;2023-04-06T14:26:35;14.50;53.50
19544;DHT22;9917;51.256;7.152;2023-04-06T14:29:04;14.50;54.10
19544;DHT22;9917;51.256;7.152;2023-04-06T14:31:30;14.40;54.40
19544;DHT22;9917;51.256;7.152;2023-04-06T14:33:58;14.00;55.50
19544;DHT22;9917;51.256;7.152;2023-04-06T14:36:26;13.90;56.70
19544;DHT22;9917;51.256;7.152;2023-04-06T14:38:52;13.90;56.90
19544;DHT22;9917;51.256;7.152;2023-04-06T14:41:19;14.00;57.20
19544;DHT22;9917;51.256;7.152;2023-04-06T14:43:47;14.00;57.90
19544;DHT22;9917;51.256;7.152;2023-04-06T14:46:14;13.90;58.50
19544;DHT22;9917;51.256;7.152;2023-04-06T14:48:40;14.00;58.60
19544;DHT22;9917;51.256;7.152;2023-04-06T14:51:06;14.10;58.40
19544;DHT22;9917;51.256;7.152;2023-04-06T14:53:51;14.10;58.50
19544;DHT22;9917;51.256;7.152;2023-04-06T14:56:19;13.90;59.80
19544;DHT22;9917;51.256;7.152;2023-04-06T14:58:45;13.90;59.80
19544;DHT22;9917;51.256;7.152;2023-04-06T15:01:14;13.80;60.60
19544;DHT22;9917;51.256;7.152;2023-04-06T15:03:40;13.70;60.70
19544;DHT22;9917;51.256;7.152;2023-04-06T15:06:11;13.80;59.00
19544;DHT22;9917;51.256;7.152;2023-04-06T15:09:28;13.80;59.60
19544;DHT22;9917;51.256;7.152;2023-04-06T15:11:29;13.30;59.90
19544;DHT22;9917;51.256;7.152;2023-04-06T15:13:54;12.80;61.80
19544;DHT22;9917;51.256;7.152;2023-04-06T15:16:24;12.70;62.80
19544;DHT22;9917;51.256;7.152;2023-04-06T15:18:50;12.60;63.10
19544;DHT22;9917;51.256;7.152;2023-04-06T15:21:16;12.70;64.50
19544;DHT22;9917;51.256;7.152;2023-04-06T15:23:42;12.50;63.30
19544;DHT22;9917;51.256;7.152;2023-04-06T15:26:07;12.40;64.30
19544;DHT22;9917;51.256;7.152;2023-04-06T15:28:34;12.10;65.30
19544;DHT22;9917;51.256;7.152;2023-04-06T15:34:18;12.00;67.20
19544;DHT22;9917;51.256;7.152;2023-04-06T15:36:44;12.10;68.30
19544;DHT22;9917;51.256;7.152;2023-04-06T15:39:10;12.00;69.40
19544;DHT22;9917;51.256;7.152;2023-04-06T15:41:41;11.90;71.40
19544;DHT22;9917;51.256;7.152;2023-04-06T15:44:32;11.80;74.10
19544;DHT22;9917;51.256;7.152;2023-04-06T15:46:57;11.70;74.70
19544;DHT22;9917;51.256;7.152;2023-04-06T15:49:24;11.50;76.90
19544;DHT22;9917;51.256;7.152;2023-04-06T15:51:50;11.20;80.10
19544;DHT22;9917;51.256;7.152;2023-04-06T15:54:16;11.00;84.30
19544;DHT22;9917;51.256;7.152;2023-04-06T15:56:42;10.90;87.40
19544;DHT22;9917;51.256;7.152;2023-04-06T15:59:08;10.70;89.40
19544;DHT22;9917;51.256;7.152;2023-04-06T16:01:34;10.50;91.30
19544;DHT22;9917;51.256;7.152;2023-04-06T16:07:12;10.30;98.80
19544;DHT22;9917;51.256;7.152;2023-04-06T16:09:38;10.30;99.40
19544;DHT22;9917;51.256;7.152;2023-04-06T16:12:04;10.30;99.90
19544;DHT22;9917;51.256;7.152;2023-04-06T16:14:30;10.20;99.90